Tiempo atmosférico en la estación meteorológica de Albacete, Albacete (674 m.)



Fecha
DESCASC
Temp. máxima en grados centígrados (hora)
DESCASC
Temp. mínima en grados centígrados (hora)
DESCASC
Temp. media en grados centígrados
DESCASC
Racha de viento máxima en m/sg (hora)
DESCASC
Velocidad máxima media en intervalos de 10 minutos(hora)
DESCASC
Precipitaciones diarias en mm
DESCASC
Precipitaciones de 00:00 a 06:00 en mm
DESCASC
Precipitaciones de 06:00 a 12:00 en mm
DESCASC
Precipitaciones de 12:00 a 18:00 en mm
DESCASC
Precipitaciones de 18:00 a 24:00 en mm
DESCASC
18-01-2018 15.9 (15:50) -0.1 (06:40) 7.9 5.83 (12:20) 1.67 (12:00) 0 0 0 0 0
17-01-2018 14.7 (16:20) 2.8 (02:00) 8.7 7.78 (08:40) 3.06 (13:10) 0 0 0 0 0
16-01-2018 15.1 (15:40) -0.3 (07:50) 7.4 8.33 (15:40) 4.17 (17:10) 0 0 0 0 0
15-01-2018 10.7 (15:30) 0.1 (07:50) 5.4 5.56 (17:10) 2.5 (20:50) 0 0 0 0 0
14-01-2018 7.6 (15:20) 3.4 (00:00) 5.5 9.17 (00:40) 3.61 (00:40) 2 0 1.1 0.9 0
13-01-2018 11.6 (15:30) -0.8 (-00:0) 5.4 10 (17:10) 4.17 (17:10) 0 0 0 0 0
12-01-2018 10.3 (15:20) 0.2 (00:00) 5.3 8.61 (12:00) 3.89 (00:50) 0 0 0 0 0
11-01-2018 9.3 (15:50) 2.4 (00:00) 5.9 14.72 (23:20) 5.28 (13:00) 0.3 0 0.2 0.1 0
10-01-2018 10.7 (15:50) 4.3 (00:00) 7.5 13.61 (21:50) 5 (17:00) 8.1 1.6 0.2 0 6.3
09-01-2018 7.6 (15:50) -1.4 (-00:0) 3.1 7.78 (16:30) 3.89 (16:30) 0.4 0 0 0 0.4
08-01-2018 10.6 (15:50) -1.3 (-00:0) 4.7 3.06 (15:10) 1.39 (14:00) 0 0 0 0 0
07-01-2018 8.7 (15:10) 0.5 (00:00) 4.6 6.94 (06:10) 2.78 (10:30) 0 0 0 0 0
06-01-2018 10.2 (15:00) 2.5 (00:00) 6.3 11.67 (17:00) 4.72 (17:30) 1.9 0 0 1.1 0.8
05-01-2018 11.6 (14:40) 7.1 (00:00) 9.4 11.94 (13:00) 5.56 (13:00) 0 0 0 0 0
04-01-2018 12.7 (17:00) 9.2 (00:50) 10.9 11.11 (20:00) 5 (23:40) 0 0 0 0 0
03-01-2018 12.9 (15:20) 6.2 (00:00) 9.5 7.5 (15:10) 3.61 (23:20) 0 0 0 0 0
02-01-2018 14.2 (15:20) 4.7 (00:00) 9.4 10 (16:30) 4.17 (11:40) 0 0 0 0 0
01-01-2018 13.5 (15:00) 1.3 (00:00) 7.4 11.67 (14:40) 6.11 (14:40) 0 0 0 0 0
31-12-2017 12 (15:10) 1.6 (00:00) 6.8 13.33 (22:00) 5.28 (21:40) 0 0 0 0 0
30-12-2017 14.7 (15:40) 6 (00:00) 10.3 7.22 (15:40) 2.78 (01:40) 0 0 0 0 0
29-12-2017 15.1 (15:10) 9.7 (00:00) 12.4 11.67 (00:50) 4.72 (11:30) 0 0 0 0 0
28-12-2017 15.3 (15:40) 5.6 (00:00) 10.5 16.11 (15:20) 8.33 (15:50) 0 0 0 0 0
27-12-2017 10.8 (16:10) 5.4 (00:00) 8.1 16.94 (04:50) 7.5 (07:00) 3.1 1.1 1.9 0.1 0
26-12-2017 9.9 (14:00) 5 (00:00) 7.4 12.22 (14:00) 5 (13:00) 0.1 0 0.1 0 0
25-12-2017 11.1 (16:10) 0.7 (00:00) 5.9 5.83 (03:30) 2.78 (03:30) 0 0 0 0 0
24-12-2017 14.1 (14:30) 2.2 (00:00) 8.2 7.5 (15:40) 2.78 (15:30) 0 0 0 0 0
23-12-2017 12.9 (15:50) -1.1 (-00:0) 5.9 6.67 (15:00) 2.78 (17:00) 0 0 0 0 0
22-12-2017 14.7 (15:00) 0.1 (00:00) 7.4 12.22 (15:50) 3.89 (15:40) 0 0 0 0 0
21-12-2017 13.4 (16:00) -1.5 (-00:0) 5.9 3.33 (22:00) 1.39 (22:00) 0 0 0 0 0

Gráficas

Temp. máximas Temp. mínimas Temp. medias Precipitaciones Rachas de viento máximas Velocidades máximas media en intervalos de 10 minutos

Datos horarios

Fecha y hora oficial Temperatura (ºC) Velocidad del viento (km/h) Dirección del viento Racha (km/h) Dirección de racha Precipitación (mm) Presión (hPa) Tendencia (hPa) Humedad (%)
2018-01-19 23:00:00 6.2 4 Oeste 17 Noroeste 0 945.6 2.4 71
2018-01-19 22:00:00 7.9 6 Oeste 18 Oeste 0 944.4 2 65
2018-01-19 21:00:00 8.1 6 Oeste 15 Sudoeste 0 943.9 2.3 59
2018-01-19 20:00:00 9.6 8 Oeste 15 Oeste 0 943.2 2.2 53
2018-01-19 19:00:00 11.2 4 Oeste 13 Oeste 0 942.4 1.5 47
2018-01-19 18:00:00 13.2 4 Oeste 13 Oeste 0 941.6 0.7 40
2018-01-19 17:00:00 15.7 5 Oeste 18 Oeste 0 941 -0.4 34
2018-01-19 16:00:00 16.4 4 Oeste 10 Oeste 0 940.9 -1.6 34
2018-01-19 15:00:00 15.2 2 Oeste 7 Oeste 0 940.9 -1.1 40
2018-01-19 14:00:00 13 4 Este 10 Este 0 941.4 -0.8 48
2018-01-19 13:00:00 10.1 3 Noroeste 11 Oeste 0 942.5 0.4 59
2018-01-19 12:00:00 6.8 2 Oeste 8 Sudoeste 0 942 0.6 78
2018-01-19 11:00:00 3.9 4 Sudoeste 10 Sudoeste 0 942.2 1.1 91
2018-01-19 10:00:00 3 2 Oeste 6 Sudoeste 0 942.1 1.7 91
2018-01-19 09:00:00 2.6 3 Oeste 6 Oeste 0 941.4 1.1 93
2018-01-19 08:00:00 3.3 0 Calma 5 Sudoeste 0 941.1 0.8 94
2018-01-19 07:00:00 3.4 0 Calma 5 Sur 0 940.4 -0.2 93
2018-01-19 06:00:00 3 0 Calma 5 Oeste 0 940.3 -0.8 93
2018-01-19 05:00:00 3.3 0 Calma 6 Sudoeste 0 940.3 -0.9 90
2018-01-19 04:00:00 4.1 0 Calma 11 Sudoeste 0 940.6 -0.8 89
2018-01-19 03:00:00 4.4 0 Calma 9 Sudoeste 0 941.1 -0.8 87
2018-01-19 02:00:00 5.1 0 Calma 4 Oeste 0 941.2 -0.1 87
2018-01-19 01:00:00 5.9 0 Calma 6 Sur 0 941.4 -0.9 87
2018-01-19 00:00:00 6 0 Calma 5 Sudeste 0 941.9 -0.4 82
2018-01-18 23:00:00 6.9 0 Calma 6 Este 0 941.3 -1 83
2018-01-18 22:00:00 7 2 Sudeste 8 Sudeste 0 942.3 -0.2 80
2018-01-18 21:00:00 8 0 Calma 5 Este 0 942.3 -0.5 70
2018-01-18 20:00:00 10.1 0 Calma 12 Sur 0 942.3 0.3 60
2018-01-18 19:00:00 10.9 4 Sur 15 Sudoeste 0 942.5 0.5 57
2018-01-18 18:00:00 12.2 2 Este 11 Nordeste 0 942.8 0 57
2018-01-18 17:00:00 14 5 Nordeste 14 Este 0 942 -1.8 50
2018-01-18 16:00:00 15.1 4 Nordeste 15 Este 0 942 -3.2 47
2018-01-18 15:00:00 15.2 2 Este 15 Este 0 942.8 -3.3 50
2018-01-18 14:00:00 14 4 Este 15 Este 0 943.8 -2.6 55
2018-01-18 13:00:00 12.7 5 Este 21 Este 0 945.2 -1.2 59
2018-01-18 12:00:00 10.9 6 Sudeste 16 Este 0 946.1 -0.1 71
2018-01-18 11:00:00 6.1 6 Nordeste 10 Este 0 946.4 0.6 94
2018-01-18 10:00:00 3.3 4 Este 7 Este 0 946.4 0.5 97
2018-01-18 09:00:00 0.5 0 Calma 10 Este 0 946.2 0.4 95
2018-01-18 08:00:00 0.3 3 Este 9 Este 0 945.8 -0.1 97
2018-01-18 07:00:00 0 0 Calma -- -- 0 945.9 -0.5 97
2018-01-18 06:00:00 0.2 0 Calma -- -- 0 945.8 -0.3 97
2018-01-18 05:00:00 0.7 0 Calma 5 Este 0 945.9 -0.2 96
2018-01-18 04:00:00 0.9 0 Calma 4 Este 0 946.4 0 94
2018-01-18 03:00:00 1.1 0 Calma -- -- 0 946.1 -0.4 92
2018-01-18 02:00:00 1.9 0 Calma -- -- 0 946.1 -0.2 90
2018-01-18 01:00:00 2.9 0 Calma -- -- 0 946.4 0 88
2018-01-18 00:00:00 4 0 Calma 5 Sudoeste 0 946.5 0.4 87
2018-01-17 23:00:00 4.9 0 Calma 5 Sudoeste 0 946.3 0.5 80
2018-01-17 22:00:00 6.2 3 Sudoeste 8 Oeste 0 946.4 0.7 76
2018-01-17 21:00:00 6.8 3 Sudoeste 15 Oeste 0 946.1 0.9 75
2018-01-17 20:00:00 8.2 8 Oeste 16 Oeste 0 945.8 1.1 70
2018-01-17 19:00:00 9.8 5 Oeste 16 Oeste 0 945.7 1 63
2018-01-17 18:00:00 11.4 6 Oeste 18 Oeste 0 945.2 0.4 54
2018-01-17 17:00:00 13.7 9 Oeste 23 Noroeste 0 944.7 -0.8 47
2018-01-17 16:00:00 14.4 8 Oeste 24 Oeste 0 944.7 -1.7 50
2018-01-17 15:00:00 13.7 9 Oeste 22 Oeste 0 944.8 -2.3 53
2018-01-17 14:00:00 12.2 9 Oeste 26 Oeste 0 945.5 -1.4 60
2018-01-17 13:00:00 9.1 9 Oeste 22 Oeste 0 946.4 0.1 75
2018-01-17 12:00:00 6.6 6 Noroeste 26 Oeste 0 947.1 1.1 92
2018-01-17 11:00:00 6 6 Oeste 23 Oeste 0 946.9 0.9 97
2018-01-17 10:00:00 5.7 5 Oeste 27 Oeste 0 946.3 0.6 99
2018-01-17 09:00:00 5.7 9 Oeste 28 Oeste 0 946 0.5 99
2018-01-17 08:00:00 5.6 6 Oeste 16 Oeste 0 946 0.6 98
2018-01-17 07:00:00 5.6 7 Oeste 22 Oeste 0 945.7 -0.3 99
2018-01-17 06:00:00 6.1 7 Oeste 21 Oeste 0 945.5 -1.1 98
2018-01-17 05:00:00 5.8 9 Oeste 21 Oeste 0 945.4 -1.3 96
2018-01-17 04:00:00 4.2 0 Calma 10 Oeste 0 946 -1.3 93
2018-01-17 03:00:00 3.4 0 Calma 9 Oeste 0 946.6 -0.7 94
2018-01-17 02:00:00 2.9 0 Calma 4 Oeste 0 946.7 -1 91
2018-01-17 01:00:00 3.7 0 Calma 8 Oeste 0 947.3 -0.8 88
2018-01-17 00:00:00 4.6 0 Calma 4 Sudoeste 0 947.3 -0.5 90
2018-01-16 23:00:00 4.8 0 Calma -- -- 0 947.7 -0.2 86
2018-01-16 22:00:00 6 0 Calma 3 Norte 0 948.1 0.5 78
2018-01-16 21:00:00 7.5 0 Calma 8 Oeste 0 947.8 0.6 72
2018-01-16 20:00:00 8.7 2 Oeste 12 Noroeste 0 947.9 0.9 65
2018-01-16 19:00:00 10.2 5 Oeste 21 Oeste 0 947.6 0.5 57
2018-01-16 18:00:00 11.9 9 Oeste 30 Oeste 0 947.2 -0.1 52
2018-01-16 17:00:00 13.7 14 Oeste 27 Oeste 0 947 -1.2 49
2018-01-16 16:00:00 15 8 Oeste 30 Oeste 0 947.1 -2.1 48
2018-01-16 15:00:00 14.3 9 Oeste 30 Oeste 0 947.3 -2.8 47
2018-01-16 14:00:00 13.7 11 Oeste 29 Oeste 0 948.2 -2 49
2018-01-16 13:00:00 12.4 8 Noroeste 25 Noroeste 0 949.2 -0.8 47
2018-01-16 12:00:00 10 7 Oeste 17 Oeste 0 950.1 0.6 60
2018-01-16 11:00:00 4.4 0 Calma 7 Noroeste 0 950.2 1.1 84
2018-01-16 10:00:00 2 0 Calma 9 Noroeste 0 950 1.2 94
2018-01-16 09:00:00 0.3 0 Calma 4 Oeste 0 949.5 0.9 97
2018-01-16 08:00:00 -0.2 0 Calma -- -- 0 949.1 0.3 95
2018-01-16 07:00:00 0.2 0 Calma 3 Noroeste 0 948.8 0.1 92
2018-01-16 06:00:00 1 0 Calma 9 Oeste 0 948.6 -0.3 90
2018-01-16 05:00:00 1.8 3 Oeste 9 Oeste 0 948.8 -0.2 89
2018-01-16 04:00:00 0.9 0 Calma -- -- 0 948.7 -0.8 90
2018-01-16 03:00:00 1.9 0 Calma 7 Oeste 0 948.9 -0.6 87
2018-01-16 02:00:00 2.3 0 Calma 8 Oeste 0 949 -0.6 87
2018-01-16 01:00:00 2.5 0 Calma 9 Sudoeste 0 949.5 0.5 87
2018-01-16 00:00:00 2.7 3 Sudoeste 12 Oeste 0 949.5 0.5 85
2018-01-15 23:00:00 3.4 5 Oeste 13 Sudoeste 0 949.6 1.4 84
2018-01-15 22:00:00 3.6 6 Sudoeste 18 Oeste 0 949 1.3 81
2018-01-15 21:00:00 4.5 9 Oeste 18 Oeste 0 949 2.5 74
2018-01-15 20:00:00 5.5 9 Oeste 18 Oeste 0 948.2 1.7 70
2018-01-15 19:00:00 6.5 5 Oeste 15 Oeste 0 947.7 1.5 64
2018-01-15 18:00:00 8 6 Oeste 20 Oeste 0 946.5 0.4 57
2018-01-15 17:00:00 10 6 Oeste 15 Oeste 0 946.5 0.2 48
2018-01-15 16:00:00 10.6 5 Oeste 15 Oeste 0 946.2 -0.8 47
2018-01-15 15:00:00 10.2 4 Oeste 15 Oeste 0 946.1 -1.1 50
2018-01-15 14:00:00 9 6 Oeste 14 Oeste 0 946.3 -0.3 56
2018-01-15 13:00:00 8.2 4 Noroeste 12 Oeste 0 947 0.7 60
2018-01-15 12:00:00 6.8 3 Oeste 12 Oeste 0 947.2 1.9 65
2018-01-15 11:00:00 4.3 3 Oeste 11 Oeste 0 946.6 1.7 80
2018-01-15 10:00:00 0.9 0 Calma 0 Calma 0 946.3 2.2 94
2018-01-15 09:00:00 0.2 0 Calma 5 Oeste 0 945.3 1.7 94
2018-01-15 08:00:00 0.2 0 Calma 5 Oeste 0 944.9 2 94
2018-01-15 07:00:00 0.4 0 Calma 5 Sudoeste 0 944.1 1.7 94
2018-01-15 06:00:00 0.5 2 Sudoeste 5 Sudoeste 0 943.6 1.5 92
2018-01-15 05:00:00 1.7 0 Calma 4 Oeste 0 942.9 1.1 90
2018-01-15 04:00:00 2.5 0 Calma -- -- 0 942.4 0.4 89
2018-01-15 03:00:00 2.8 0 Calma 5 Noroeste 0 942.1 0.5 87
2018-01-15 02:00:00 2.9 0 Calma -- -- 0 941.8 0.5 87
2018-01-15 01:00:00 3.2 0 Calma 4 Noroeste 0 942 1.4 87
2018-01-15 00:00:00 3.4 0 Calma 6 Oeste 0 941.6 1.4 87
2018-01-14 23:00:00 4.1 0 Calma 6 Oeste 0 941.3 1.8 85
2018-01-14 22:00:00 4.8 0 Calma 6 Oeste 0 940.6 1.5 86
2018-01-14 21:00:00 5 0 Calma -- -- 0 940.2 1.4 86
2018-01-14 20:00:00 5.3 0 Calma -- -- 0 939.5 0.8 81
2018-01-14 19:00:00 5.7 0 Calma 5 Noroeste 0 939.1 0.9 77
2018-01-14 18:00:00 6.5 3 Oeste 8 Oeste 0 938.8 0.6 70
2018-01-14 17:00:00 6.9 0 Calma 11 Oeste 0 938.7 0.1 67
2018-01-14 16:00:00 7.2 4 Oeste 13 Oeste 0 938.2 -1.5 70
2018-01-14 15:00:00 7.4 5 Oeste 17 Noroeste 0 938.2 -1.8 73
2018-01-14 14:00:00 6 0 Calma 11 Oeste 0.9 938.6 -1.8 87
2018-01-14 13:00:00 6.1 3 Noroeste 23 Oeste 0 939.7 -0.6 78
2018-01-14 12:00:00 6.6 7 Oeste 21 Oeste 0 940 0.4 77
2018-01-14 11:00:00 5.7 4 Oeste 11 Oeste 0.2 940.4 0.8 88
2018-01-14 10:00:00 4.4 6 Oeste 14 Oeste 0 940.3 0.9 91
2018-01-14 09:00:00 4.1 0 Calma 10 Sudoeste 0 939.6 0.1 93
2018-01-14 08:00:00 4.2 3 Sudoeste 8 Sudoeste 0 939.6 0.1 93
2018-01-14 07:00:00 4.2 0 Calma 12 Sudoeste 0.9 939.4 -0.4 93
2018-01-14 06:00:00 4.3 0 Calma 6 Oeste 0 939.5 -0.5 90
2018-01-14 05:00:00 4.3 0 Calma 8 Oeste 0 939.5 -0.3 88
2018-01-14 04:00:00 4.4 4 Oeste 18 Oeste 0 939.8 0.1 87
2018-01-14 03:00:00 4.2 6 Oeste 18 Oeste 0 940 0.1 87
2018-01-14 02:00:00 3.7 6 Oeste 24 Oeste 0 939.8 0.3 88
2018-01-14 01:00:00 4.7 10 Oeste 33 Oeste 0 939.7 0.6 85
2018-01-14 00:00:00 6.1 12 Oeste 28 Oeste 0 939.9 0.6 80
2018-01-13 23:00:00 6.5 9 Oeste 28 Sudoeste 0 939.5 0.6 76
2018-01-13 22:00:00 6.5 8 Oeste 24 Sudoeste 0 939.1 0.6 76
2018-01-13 21:00:00 6.1 9 Sudoeste 25 Oeste 0 939.3 0.7 77
2018-01-13 20:00:00 6.7 12 Oeste 29 Oeste 0 938.9 0.1 72
2018-01-13 19:00:00 7.2 8 Sudoeste 23 Sur 0 938.5 0.2 69
2018-01-13 18:00:00 7.3 9 Oeste 36 Sudoeste 0 938.6 0.1 61
2018-01-13 17:00:00 9.2 11 Oeste 27 Sudoeste 0 938.8 -0.3 42
2018-01-13 16:00:00 10.4 10 Oeste 26 Oeste 0 938.3 -1.6 38
2018-01-13 15:00:00 10.6 6 Sudoeste 17 Oeste 0 938.5 -2.2 42
2018-01-13 14:00:00 8.6 3 Sudoeste 16 Sur 0 939.1 -1.8 52
2018-01-13 13:00:00 8 3 Sudoeste 14 Sudoeste 0 939.9 -1 53
2018-01-13 12:00:00 7.3 3 Sudeste 14 Sudeste 0 940.7 -0.4 60
2018-01-13 11:00:00 3.5 3 Este 9 Este 0 940.9 0.4 91
2018-01-13 10:00:00 0.6 5 Este 10 Este 0 940.9 0 96
2018-01-13 09:00:00 -0.3 0 Calma 5 Nordeste 0 941.1 -0.3 97
2018-01-13 08:00:00 -0.4 0 Calma 5 Nordeste 0 940.5 -1.2 97
2018-01-13 07:00:00 -0.7 0 Calma 2 Este 0 940.9 -1.4 97
2018-01-13 06:00:00 -0.3 0 Calma 6 Este 0 941.4 -1.3 95
2018-01-13 05:00:00 0.1 0 Calma -- -- 0 941.7 -1.5 94
2018-01-13 04:00:00 0.8 0 Calma 4 Sudoeste 0 942.3 -1.9 91
2018-01-13 03:00:00 1.6 0 Calma -- -- 0 942.7 -1.8 89
2018-01-13 02:00:00 2.4 0 Calma 3 Sur 0 943.2 -1.6 88
2018-01-13 01:00:00 2.5 0 Calma 4 Este 0 944.2 -0.6 85
2018-01-13 00:00:00 3.9 0 Calma 9 Sudoeste 0 944.5 -0.3 82
2018-01-12 23:00:00 4.2 0 Calma 9 Sudoeste 0 944.8 0 82
2018-01-12 22:00:00 4 0 Calma 6 Oeste 0 944.8 0 80
2018-01-12 21:00:00 4.6 0 Calma 4 Noroeste 0 944.8 0.4 76
2018-01-12 20:00:00 5.4 0 Calma 9 Noroeste 0 944.8 0.3 68
2018-01-12 19:00:00 6.6 3 Oeste 12 Oeste 0 944.8 0.5 62
2018-01-12 18:00:00 7.7 3 Oeste 16 Oeste 0 944.4 -0.3 54
2018-01-12 17:00:00 9 5 Oeste 26 Oeste 0 944.5 -0.4 47
2018-01-12 16:00:00 9.8 8 Oeste 24 Oeste 0 944.3 -1.9 49
2018-01-12 15:00:00 9.8 10 Oeste 31 Oeste 0 944.7 -2 50
2018-01-12 14:00:00 9.3 10 Oeste 28 Oeste 0 944.9 -1.7 53
2018-01-12 13:00:00 8.3 9 Oeste 26 Oeste 0 946.2 -0.2 60
2018-01-12 12:00:00 6.6 12 Oeste 31 Oeste 0 946.7 0.7 65
2018-01-12 11:00:00 4.3 8 Oeste 21 Oeste 0 946.6 0.9 74
2018-01-12 10:00:00 1.6 6 Oeste 16 Oeste 0 946.4 1.2 84
2018-01-12 09:00:00 0.3 5 Oeste 19 Oeste 0 946 1.1 87
2018-01-12 08:00:00 0.5 7 Oeste 24 Oeste 0 945.7 0.2 84
2018-01-12 07:00:00 1.3 8 Oeste 24 Oeste 0 945.2 -0.2 81
2018-01-12 06:00:00 1.2 8 Oeste 21 Noroeste 0 944.9 0 80
2018-01-12 05:00:00 1.5 6 Oeste 24 Oeste 0 945.5 0.4 80
2018-01-12 04:00:00 1.8 7 Oeste 19 Oeste 0 945.4 0.5 82
2018-01-12 03:00:00 1.9 10 Oeste 23 Oeste 0 944.9 -0.5 80
2018-01-12 02:00:00 2.5 9 Oeste 28 Noroeste 0 945.1 -0.5 78
2018-01-12 01:00:00 2.8 12 Oeste 26 Oeste 0 944.9 -0.7 74
2018-01-12 00:00:00 2.7 13 Oeste 53 Oeste 0 945.4 0.6 74
2018-01-11 23:00:00 3.1 12 Oeste 23 Oeste 0 945.6 1.2 71
2018-01-11 22:00:00 3.6 4 Sudoeste 18 Oeste 0 945.6 2.2 68
2018-01-11 21:00:00 3.9 8 Oeste 18 Oeste 0 944.8 2.2 68
2018-01-11 20:00:00 4 4 Sudoeste 30 Oeste 0 944.4 2.3 68
2018-01-11 19:00:00 5.4 10 Oeste 30 Oeste 0 943.4 1.3 62
2018-01-11 18:00:00 6.4 13 Oeste 39 Oeste 0 942.6 1 57
2018-01-11 17:00:00 7.9 14 Oeste 42 Oeste 0.1 942.1 0.2 53
2018-01-11 16:00:00 8.2 14 Oeste 43 Oeste 0 942.1 -0.1 50
2018-01-11 15:00:00 8.4 10 Noroeste 46 Oeste 0 941.6 -1.6 57
2018-01-11 14:00:00 7.5 14 Oeste 49 Oeste 0 941.9 -1.8 61
2018-01-11 13:00:00 7.5 19 Oeste 47 Oeste 0 942.2 -0.8 64
2018-01-11 12:00:00 7.3 17 Oeste 44 Oeste 0 943.2 0.6 69
2018-01-11 11:00:00 6.3 15 Oeste 36 Oeste 0 943.7 0.9 75
2018-01-11 10:00:00 4.4 14 Oeste 33 Oeste 0.2 943 0.6 84
2018-01-11 09:00:00 4.1 10 Oeste 27 Oeste 0 942.6 0.2 80
2018-01-11 08:00:00 4 10 Oeste 23 Oeste 0 942.8 0.1 82
2018-01-11 07:00:00 3.6 7 Oeste 18 Oeste 0 942.4 -0.8 84
2018-01-11 06:00:00 3.7 5 Oeste 22 Sudoeste 0 942.4 -0.6 86
2018-01-11 05:00:00 3.9 6 Oeste 21 Oeste 0 942.7 -0.1 87
2018-01-11 04:00:00 4.7 10 Oeste 18 Oeste 0 943.2 0.4 87
2018-01-11 03:00:00 5.7 9 Oeste 24 Oeste 0 943 0.9 87
2018-01-11 02:00:00 5.8 9 Oeste 21 Oeste 0 942.8 1.6 88
2018-01-11 01:00:00 6.1 8 Oeste 30 Oeste 0 942.8 2.5 87
2018-01-11 00:00:00 6.2 12 Oeste 37 Noroeste 0 942.1 2.5 88
2018-01-10 23:00:00 7 10 Oeste 36 Oeste 0.2 941.2 1.5 94
2018-01-10 22:00:00 7 16 Oeste 49 Oeste 5.3 940.3 0.6 95
2018-01-10 21:00:00 7.8 14 Oeste 36 Oeste 0.8 939.6 -0.9 87
2018-01-10 20:00:00 7.4 7 Oeste 23 Sudoeste 0 939.7 -0.9 78
2018-01-10 19:00:00 8.3 9 Oeste 25 Oeste 0 939.7 -0.5 70
2018-01-10 18:00:00 8.9 9 Oeste 40 Oeste 0 940.5 0.6 62
2018-01-10 17:00:00 10.3 18 Oeste 40 Oeste 0 940.6 0.4 57
2018-01-10 16:00:00 10.2 13 Oeste 45 Oeste 0 940.2 -0.2 60
2018-01-10 15:00:00 9.3 13 Oeste 40 Oeste 0 939.9 -1 66
2018-01-10 14:00:00 9.3 15 Oeste 39 Oeste 0 -- -- 70
2018-01-10 13:00:00 9.5 13 Oeste 41 Oeste 0 -- -- 70
2018-01-10 12:00:00 8.6 13 Oeste 33 Oeste 0 -- -- 86
2018-01-10 11:00:00 7.3 9 Oeste 27 Oeste 0 -- -- 99
2018-01-10 10:00:00 5.6 4 Oeste 11 Oeste 0 -- -- 99
2018-01-10 09:00:00 5.4 0 Calma 0 Calma 0 -- -- 99
2018-01-10 08:00:00 5.3 0 Calma 3 Sur 0 -- -- 99
2018-01-10 07:00:00 5.1 0 Calma 6 Sudoeste 0.2 -- -- 98
2018-01-10 06:00:00 4.7 0 Calma 10 Sudeste 0.1 -- -- 98
2018-01-10 05:00:00 4.5 0 Calma 10 Sur 0.2 -- -- 97
2018-01-10 04:00:00 4.5 3 Sudeste 10 Sudeste 0.4 -- -- 97
2018-01-10 03:00:00 4.5 0 Calma 8 Sudeste 0.1 -- -- 95
2018-01-10 02:00:00 4.5 2 Sudeste 10 Sudeste 0.6 -- -- 93
2018-01-10 01:00:00 4.8 4 Sudeste 14 Sudeste 0.2 -- -- 93
2018-01-10 00:00:00 5 3 Sudeste 15 Sudeste 0.2 -- -- 88
2018-01-09 23:00:00 4.6 0 Calma 6 Este 0.1 -- -- 85
2018-01-09 22:00:00 5.4 0 Calma 9 Sudoeste 0.1 -- -- 74
2018-01-09 21:00:00 5 0 Calma 5 Oeste 0 -- -- 76
2018-01-09 20:00:00 5 4 Oeste 15 Oeste 0 -- -- 74
2018-01-09 19:00:00 5.4 5 Oeste 14 Oeste 0 -- -- 70
2018-01-09 18:00:00 5.8 6 Oeste 24 Oeste 0 -- -- 67
2018-01-09 17:00:00 6.3 11 Oeste 28 Oeste 0 -- -- 65
2018-01-09 16:00:00 7.2 9 Oeste 26 Oeste 0 -- -- 62
2018-01-09 15:00:00 7 9 Oeste 19 Oeste 0 -- -- 64
2018-01-09 14:00:00 7.1 5 Oeste 18 Oeste 0 -- -- 67
2018-01-09 13:00:00 5.7 2 Oeste 9 Oeste 0 -- -- 71
2018-01-09 12:00:00 5 4 Oeste 10 Oeste 0 -- -- 71
2018-01-09 11:00:00 2.7 0 Calma 2 Noroeste 0 -- -- 82
2018-01-09 10:00:00 -0.4 0 Calma 5 Sudoeste 0 -- -- 93
2018-01-09 09:00:00 -1.2 0 Calma 2 Sur 0 -- -- 93
2018-01-09 08:00:00 -1.1 0 Calma 5 Sudoeste 0 -- -- 92
2018-01-09 07:00:00 -0.6 0 Calma 9 Sudoeste 0 -- -- 91
2018-01-09 06:00:00 -0.2 5 Oeste 11 Sudoeste 0 -- -- 89
2018-01-09 05:00:00 0.4 4 Sudoeste 11 Sudoeste 0 -- -- 88
2018-01-09 04:00:00 0.2 0 Calma 8 Sudoeste 0 -- -- 88
2018-01-09 03:00:00 0.3 0 Calma 8 Sudoeste 0 -- -- 88
2018-01-09 02:00:00 0.4 0 Calma 10 Sur 0 -- -- 88
2018-01-09 01:00:00 1 2 Sudoeste 8 Sudoeste 0 -- -- 87
2018-01-09 00:00:00 1.3 0 Calma 6 Sudoeste 0 -- -- 86
2018-01-08 23:00:00 1.7 2 Sudoeste 8 Sudoeste 0 -- -- 85
2018-01-08 22:00:00 2.2 0 Calma 9 Oeste 0 -- -- 83
2018-01-08 21:00:00 3.2 4 Oeste 11 Sudoeste 0 -- -- 77
2018-01-08 20:00:00 3.8 0 Calma 4 Noroeste 0 -- -- 73
2018-01-08 19:00:00 5 0 Calma 5 Noroeste 0 -- -- 66
2018-01-08 18:00:00 7 0 Calma 11 Noroeste 0 -- -- 53
2018-01-08 17:00:00 9.7 0 Calma 8 Este 0 -- -- 46
2018-01-08 16:00:00 10 0 Calma 11 Sudoeste 0 -- -- 43
2018-01-08 15:00:00 9.3 4 Sur 10 Sudoeste 0 -- -- 47
2018-01-08 14:00:00 8.9 5 Este 10 Este 0 -- -- 56
2018-01-08 13:00:00 7.7 0 Calma 6 Oeste 0 -- -- 62
2018-01-08 12:00:00 6.1 2 Oeste 8 Oeste 0 -- -- 73
2018-01-08 11:00:00 2.8 0 Calma 3 Oeste 0 -- -- 88
2018-01-08 10:00:00 0.6 0 Calma 6 Oeste 0 -- -- 95
2018-01-08 09:00:00 -0.1 3 Sudoeste 8 Sudoeste 0 -- -- 96
2018-01-08 08:00:00 -0.4 0 Calma 6 Sudoeste 0 -- -- 96
2018-01-08 07:00:00 -0.5 0 Calma 0 Calma 0 -- -- 97
2018-01-08 06:00:00 -0.7 0 Calma 6 Oeste 0 -- -- 97
2018-01-08 05:00:00 -1.2 0 Calma -- -- 0 -- -- 96
2018-01-08 04:00:00 -1.1 0 Calma 4 Nordeste 0 -- -- 94
2018-01-08 03:00:00 0.1 0 Calma 9 Sudoeste 0 -- -- 91
2018-01-08 02:00:00 0.8 0 Calma 6 Oeste 0 -- -- 90
2018-01-08 01:00:00 1 0 Calma 5 Sudoeste 0 -- -- 87
2018-01-08 00:00:00 0.5 0 Calma 2 Este 0 -- -- 84
2018-01-07 23:00:00 0.9 0 Calma -- -- 0 -- -- 79
2018-01-07 22:00:00 2.2 0 Calma 10 Sur 0 -- -- 72
2018-01-07 21:00:00 4.1 4 Sudeste 15 Sudeste 0 -- -- 67
2018-01-07 20:00:00 4.3 4 Sudeste 11 Sudeste 0 -- -- 62
2018-01-07 19:00:00 4.7 3 Este 13 Sudeste 0 -- -- 59
2018-01-07 18:00:00 6.2 5 Sudeste 22 Sudeste 0 -- -- 47
2018-01-07 17:00:00 7.6 7 Sudeste 18 Sudeste 0 -- -- 44
2018-01-07 16:00:00 7.6 9 Sudeste 21 Sudeste 0 -- -- 45
2018-01-07 15:00:00 8.3 6 Sudeste 19 Este 0 -- -- 47
2018-01-07 14:00:00 7 2 Norte 10 Sudeste 0 -- -- 50
2018-01-07 13:00:00 7.3 0 Calma 13 Sudoeste 0 -- -- 52
2018-01-07 12:00:00 7 5 Sudoeste 19 Oeste 0 -- -- 52
2018-01-07 11:00:00 5.8 4 Sudoeste 23 Sudoeste 0 -- -- 62
2018-01-07 10:00:00 2.6 9 Sudoeste 23 Sudoeste 0 -- -- 75
2018-01-07 09:00:00 2 3 Oeste 18 Sudoeste 0 -- -- 80
2018-01-07 08:00:00 2.5 8 Sudoeste 21 Sudoeste 0 -- -- 80
2018-01-07 07:00:00 3.1 6 Sudoeste 25 Oeste 0 -- -- 83
2018-01-07 06:00:00 3.3 9 Sudoeste 22 Oeste 0 -- -- 84
2018-01-07 05:00:00 3.5 4 Sudoeste 14 Sudoeste 0 -- -- 84
2018-01-07 04:00:00 3.4 5 Sudoeste 12 Sur 0 -- -- 86
2018-01-07 03:00:00 3.1 0 Calma 13 Oeste 0 -- -- 86
2018-01-07 02:00:00 3.2 3 Oeste 14 Sudoeste 0 -- -- 86
2018-01-07 01:00:00 2.9 5 Sudoeste 14 Sudoeste 0 -- -- 86
2018-01-07 00:00:00 2.6 0 Calma 17 Oeste 0 -- -- 86
2018-01-06 23:00:00 2.9 7 Oeste 22 Oeste 0 -- -- 86
2018-01-06 22:00:00 3.1 7 Oeste 21 Oeste 0 -- -- 90
2018-01-06 21:00:00 2.9 6 Sudoeste 27 Oeste 0 -- -- 90
2018-01-06 20:00:00 3.1 10 Oeste 31 Oeste 0.2 -- -- 90
2018-01-06 19:00:00 2.6 11 Oeste 31 Oeste 0.6 -- -- 90
2018-01-06 18:00:00 3.4 10 Oeste 39 Sudoeste 0 -- -- 87
2018-01-06 17:00:00 5.4 15 Oeste 42 Oeste 0.3 -- -- 87
2018-01-06 16:00:00 7.8 12 Sudeste 29 Sudeste 0.8 -- -- 80
2018-01-06 15:00:00 10.1 8 Sudeste 23 Este 0 -- -- 68
2018-01-06 14:00:00 9.8 5 Sudeste 16 Sudeste 0 -- -- 68
2018-01-06 13:00:00 9.1 4 Sudoeste 17 Sudeste 0 -- -- 68
2018-01-06 12:00:00 8.3 0 Calma 8 Oeste 0 -- -- 69
2018-01-06 11:00:00 7.3 0 Calma 11 Este 0 -- -- 72
2018-01-06 10:00:00 7.2 0 Calma 15 Sudeste 0 -- -- 70
2018-01-06 09:00:00 6.9 5 Sudeste 17 Sudeste 0 -- -- 70
2018-01-06 08:00:00 7.2 5 Sur 15 Sur 0 -- -- 68
2018-01-06 07:00:00 7.3 4 Sudeste 19 Sur 0 -- -- 67
2018-01-06 06:00:00 7.6 5 Sudeste 18 Sudeste 0 -- -- 64
2018-01-06 05:00:00 7.5 3 Sudeste 13 Sudeste 0 -- -- 66
2018-01-06 04:00:00 6.9 3 Sur 12 Sur 0 -- -- 67
2018-01-06 03:00:00 7 3 Sudeste 16 Sur 0 -- -- 67
2018-01-06 02:00:00 7.2 4 Sudeste 14 Sur 0 -- -- 66
2018-01-06 01:00:00 7.6 4 Sudeste 15 Sudoeste 0 -- -- 66
2018-01-06 00:00:00 7.2 3 Sur 14 Sur 0 -- -- 67
2018-01-05 23:00:00 7.8 0 Calma 12 Sudoeste 0 -- -- 65
2018-01-05 22:00:00 7.9 5 Sur 14 Sur 0 -- -- 64
2018-01-05 21:00:00 8.8 3 Sudoeste 15 Sudoeste 0 -- -- 64
2018-01-05 20:00:00 9.4 6 Sudoeste 17 Oeste 0 -- -- 64
2018-01-05 19:00:00 9.5 6 Sudoeste 25 Oeste 0 -- -- 63
2018-01-05 18:00:00 10.1 11 Oeste 34 Sudoeste 0 -- -- 61
2018-01-05 17:00:00 10.6 14 Oeste 34 Oeste 0 -- -- 57
2018-01-05 16:00:00 11.1 12 Oeste 35 Sudoeste 0 -- -- 59
2018-01-05 15:00:00 11.1 16 Oeste 38 Oeste 0 -- -- 57
2018-01-05 14:00:00 11.3 13 Oeste 39 Oeste 0 -- -- 60
2018-01-05 13:00:00 11.1 20 Oeste 43 Oeste 0 -- -- 59
2018-01-05 12:00:00 10.5 16 Oeste 37 Oeste 0 -- -- 59
2018-01-05 11:00:00 10.1 9 Oeste 22 Noroeste 0 -- -- 69
2018-01-05 10:00:00 9.8 8 Oeste 23 Oeste 0 -- -- 67
2018-01-05 09:00:00 9.4 8 Oeste 23 Oeste 0 -- -- 71
2018-01-05 08:00:00 9.1 9 Oeste 26 Oeste 0 -- -- 73
2018-01-05 07:00:00 9.6 10 Oeste 31 Oeste 0 -- -- 67
2018-01-05 06:00:00 9.9 10 Oeste 28 Oeste 0 -- -- 70
2018-01-05 05:00:00 10 13 Oeste 34 Oeste 0 -- -- 69
2018-01-05 04:00:00 10.1 11 Oeste 30 Sudoeste 0 -- -- 71
2018-01-05 03:00:00 10.2 11 Oeste 31 Oeste 0 -- -- 69
2018-01-05 02:00:00 10.4 14 Oeste 37 Oeste 0 -- -- 69
2018-01-05 01:00:00 10.5 11 Oeste 35 Oeste 0 -- -- 69
2018-01-05 00:00:00 10.7 13 Oeste 36 Oeste 0 -- -- 69
2018-01-04 23:00:00 11 12 Oeste 34 Oeste 0 -- -- 70
2018-01-04 22:00:00 11.1 12 Oeste 32 Oeste 0 -- -- 72
2018-01-04 21:00:00 11.4 9 Oeste 32 Oeste 0 -- -- 77
2018-01-04 20:00:00 11.8 13 Oeste 40 Oeste 0 -- -- 76
2018-01-04 19:00:00 11.9 10 Oeste 27 Oeste 0 -- -- 75
2018-01-04 18:00:00 12.2 9 Oeste 35 Oeste 0 -- -- 74
2018-01-04 17:00:00 12.5 12 Oeste 33 Oeste 0 -- -- 74
2018-01-04 16:00:00 12.4 12 Oeste 32 Oeste 0 -- -- 78
2018-01-04 15:00:00 12.2 12 Oeste 32 Oeste 0 -- -- 79
2018-01-04 14:00:00 12.3 10 Oeste 34 Oeste 0 -- -- 79
2018-01-04 13:00:00 11.8 11 Oeste 32 Oeste 0 -- -- 81
2018-01-04 12:00:00 10.9 13 Oeste 29 Oeste 0 -- -- 87
2018-01-04 11:00:00 9.7 9 Oeste 26 Oeste 0 -- -- 88
2018-01-04 10:00:00 9.6 14 Oeste 31 Oeste 0 -- -- 90
2018-01-04 09:00:00 9.4 7 Oeste 21 Oeste 0 -- -- 90
2018-01-04 08:00:00 9.6 6 Oeste 17 Noroeste 0 -- -- 90
2018-01-04 07:00:00 10 6 Oeste 21 Oeste 0 -- -- 91
2018-01-04 06:00:00 10 10 Oeste 21 Oeste 0 -- -- 91
2018-01-04 05:00:00 10.1 5 Oeste 14 Oeste 0 -- -- 91
2018-01-04 04:00:00 10.4 5 Oeste 21 Oeste 0 -- -- 92
2018-01-04 03:00:00 9.9 6 Oeste 21 Oeste 0 -- -- 94
2018-01-04 02:00:00 9.6 9 Oeste 18 Oeste 0 -- -- 94
2018-01-04 01:00:00 9.4 8 Oeste 24 Oeste 0 -- -- 93
2018-01-04 00:00:00 9.9 12 Oeste 27 Noroeste 0 -- -- 89
2018-01-03 23:00:00 10.4 8 Oeste 24 Oeste 0 -- -- 88
2018-01-03 22:00:00 10.4 3 Oeste 20 Oeste 0 -- -- 87
2018-01-03 21:00:00 10.6 3 Oeste 15 Oeste 0 -- -- 87
2018-01-03 20:00:00 10.9 4 Noroeste 19 Oeste 0 -- -- 85
2018-01-03 19:00:00 11 4 Noroeste 21 Oeste 0 -- -- 81
2018-01-03 18:00:00 11.7 4 Noroeste 21 Oeste 0 -- -- 77
2018-01-03 17:00:00 12.5 5 Noroeste 18 Oeste 0 -- -- 75
2018-01-03 16:00:00 12.4 9 Oeste 27 Oeste 0 -- -- 74
2018-01-03 15:00:00 12.7 7 Noroeste 24 Noroeste 0 -- -- 73
2018-01-03 14:00:00 12.1 6 Noroeste 25 Oeste 0 -- -- 76
2018-01-03 13:00:00 12.2 3 Noroeste 14 Oeste 0 -- -- 74
2018-01-03 12:00:00 11.9 8 Oeste 23 Oeste 0 -- -- 82
2018-01-03 11:00:00 9.8 7 Oeste 24 Oeste 0 -- -- 91
2018-01-03 10:00:00 8.8 4 Sudoeste 11 Sudoeste 0 -- -- 94
2018-01-03 09:00:00 8.4 6 Oeste 20 Oeste 0 -- -- 96
2018-01-03 08:00:00 8.1 6 Oeste 17 Oeste 0 -- -- 97
2018-01-03 07:00:00 7.9 5 Oeste 17 Oeste 0 -- -- 97
2018-01-03 06:00:00 7.7 5 Oeste 17 Sudoeste 0 -- -- 97
2018-01-03 05:00:00 7.4 7 Oeste 19 Oeste 0 -- -- 96
2018-01-03 04:00:00 7 0 Calma 12 Noroeste 0 -- -- 94
2018-01-03 03:00:00 6.6 0 Calma 14 Sudoeste 0 -- -- 94
2018-01-03 02:00:00 6.3 0 Calma 18 Oeste 0 -- -- 94
2018-01-03 01:00:00 6.3 8 Oeste 22 Oeste 0 -- -- 92
2018-01-03 00:00:00 6.8 6 Oeste 17 Oeste 0 -- -- 86
2018-01-02 23:00:00 7.2 4 Oeste 16 Oeste 0 -- -- 82
2018-01-02 22:00:00 7.6 5 Oeste 17 Oeste 0 -- -- 81
2018-01-02 21:00:00 7.9 2 Oeste 15 Oeste 0 -- -- 76
2018-01-02 20:00:00 8.7 3 Oeste 13 Oeste 0 -- -- 75
2018-01-02 19:00:00 9.9 3 Oeste 23 Oeste 0 -- -- 67
2018-01-02 18:00:00 11.1 6 Noroeste 23 Oeste 0 -- -- 57
2018-01-02 17:00:00 12.5 6 Noroeste 36 Oeste 0 -- -- 50
2018-01-02 16:00:00 13.5 12 Oeste 31 Oeste 0 -- -- 47
2018-01-02 15:00:00 14 9 Oeste 30 Oeste 0 -- -- 47
2018-01-02 14:00:00 13.4 10 Oeste 34 Oeste 0 -- -- 49
2018-01-02 13:00:00 12.8 10 Oeste 26 Oeste 0 -- -- 52
2018-01-02 12:00:00 10.3 9 Oeste 30 Oeste 0 -- -- 61
2018-01-02 11:00:00 9.4 13 Oeste 29 Oeste 0 -- -- 70
2018-01-02 10:00:00 6.8 9 Oeste 26 Oeste 0 -- -- 82
2018-01-02 09:00:00 5.9 11 Oeste 29 Oeste 0 -- -- 84
2018-01-02 08:00:00 6 9 Oeste 24 Oeste 0 -- -- 85
2018-01-02 07:00:00 6.6 13 Oeste 26 Oeste 0 -- -- 87
2018-01-02 06:00:00 6 13 Oeste 25 Oeste 0 -- -- 90
2018-01-02 05:00:00 6 7 Oeste 16 Oeste 0 -- -- 91
2018-01-02 04:00:00 5.7 4 Oeste 12 Oeste 0 -- -- 91
2018-01-02 03:00:00 5 0 Calma 14 Oeste 0 -- -- 91
2018-01-02 02:00:00 4.8 6 Oeste 13 Oeste 0 -- -- 88
2018-01-02 01:00:00 5.1 8 Oeste 25 Oeste 0 -- -- 84
2018-01-02 00:00:00 5.9 12 Oeste 30 Oeste 0 -- -- 78
2018-01-01 23:00:00 6.2 11 Oeste 34 Oeste 0 -- -- 74
2018-01-01 22:00:00 6.3 14 Oeste 27 Noroeste 0 -- -- 68
2018-01-01 21:00:00 6.7 12 Oeste 31 Oeste 0 -- -- 61
2018-01-01 20:00:00 7.6 14 Oeste 25 Oeste 0 -- -- 52
2018-01-01 19:00:00 8.5 9 Oeste 24 Oeste 0 -- -- 44
2018-01-01 18:00:00 9.9 11 Oeste 30 Oeste 0 -- -- 34
2018-01-01 17:00:00 11.9 13 Oeste 40 Oeste 0 -- -- 27
2018-01-01 16:00:00 13.2 14 Oeste 36 Sudoeste 0 -- -- 24
2018-01-01 15:00:00 13.4 19 Oeste 42 Oeste 0 -- -- 26
2018-01-01 14:00:00 12.9 12 Oeste 30 Oeste 0 -- -- 33
2018-01-01 13:00:00 11.4 11 Oeste 27 Oeste 0 -- -- 48
2018-01-01 12:00:00 9.3 7 Oeste 13 Oeste 0 -- -- 65
2018-01-01 11:00:00 6.6 7 Oeste 15 Oeste 0 -- -- 80
2018-01-01 10:00:00 3.1 4 Oeste 13 Noroeste 0 -- -- 95
2018-01-01 09:00:00 1.8 0 Calma 12 Oeste 0 -- -- 95
2018-01-01 08:00:00 1.7 0 Calma 11 Oeste 0 -- -- 92
2018-01-01 07:00:00 3.2 7 Oeste 17 Oeste 0 -- -- 90
2018-01-01 06:00:00 3.4 4 Oeste 11 Sudoeste 0 -- -- 84
2018-01-01 05:00:00 4.2 0 Calma 19 Oeste 0 -- -- 76
2018-01-01 04:00:00 4.9 7 Oeste 22 Oeste 0 -- -- 77
2018-01-01 03:00:00 5.1 8 Oeste 22 Oeste 0 -- -- 77
2018-01-01 02:00:00 5.6 9 Oeste 30 Oeste 0 -- -- 79
2018-01-01 01:00:00 6.6 9 Oeste 31 Oeste 0 -- -- 79
2018-01-01 00:00:00 7.5 12 Oeste 32 Oeste 0 -- -- 74
2017-12-31 23:00:00 9 13 Oeste 39 Oeste 0 -- -- 80
2017-12-31 22:00:00 10.2 18 Oeste 48 Noroeste 0 -- -- 78
2017-12-31 21:00:00 9.7 10 Oeste 34 Oeste 0 -- -- 84
2017-12-31 20:00:00 10 15 Oeste 38 Oeste 0 -- -- 73
2017-12-31 19:00:00 10.1 18 Oeste 37 Oeste 0 -- -- 64
2017-12-31 18:00:00 10.3 14 Oeste 40 Oeste 0 -- -- 69
2017-12-31 17:00:00 10.8 14 Oeste 43 Oeste 0 -- -- 73
2017-12-31 16:00:00 11.9 17 Oeste 36 Oeste 0 -- -- 67
2017-12-31 15:00:00 11.6 12 Oeste 30 Noroeste 0 -- -- 82
2017-12-31 14:00:00 8.3 4 Sudoeste 10 Sudoeste 0 -- -- 99
2017-12-31 13:00:00 5.6 5 Oeste 11 Sudoeste 0 -- -- 98
2017-12-31 12:00:00 4.6 3 Sudoeste 8 Oeste 0 -- -- 99
2017-12-31 11:00:00 4.5 2 Oeste 8 Oeste 0 -- -- 99
2017-12-31 10:00:00 4.5 0 Calma -- -- 0 -- -- 99
2017-12-31 09:00:00 3.5 0 Calma -- -- 0 -- -- 99
2017-12-31 08:00:00 2.9 0 Calma 7 Noroeste 0 -- -- 99
2017-12-31 07:00:00 3.1 0 Calma 5 Oeste 0 -- -- 99
2017-12-31 06:00:00 1.9 0 Calma -- -- 0 -- -- 98
2017-12-31 05:00:00 2 0 Calma -- -- 0 -- -- 98
2017-12-31 04:00:00 3.4 0 Calma 7 Sudoeste 0 -- -- 97
2017-12-31 03:00:00 3.9 2 Oeste 7 Oeste 0 -- -- 97
2017-12-31 02:00:00 4.9 0 Calma 5 Sudoeste 0 -- -- 97
2017-12-31 01:00:00 5.5 0 Calma 6 Sur 0 -- -- 97